createdAt,value
2023-02-08T00:00:35.769Z,100.00
2023-02-08T00:01:39.804Z,100.00
2023-02-08T00:02:43.790Z,100.00
2023-02-08T00:03:48.575Z,100.00
2023-02-08T00:04:52.591Z,100.00
2023-02-08T00:05:56.500Z,100.00
2023-02-08T00:07:00.474Z,100.00
2023-02-08T00:08:04.558Z,100.00
2023-02-08T00:09:08.545Z,100.00
2023-02-08T00:10:12.938Z,100.00
2023-02-08T00:11:16.899Z,100.00
2023-02-08T00:12:20.820Z,100.00
2023-02-08T00:13:25.194Z,100.00
2023-02-08T00:14:29.227Z,100.00
2023-02-08T00:15:33.078Z,100.00
2023-02-08T00:16:36.995Z,100.00
2023-02-08T00:17:40.849Z,100.00
2023-02-08T00:18:44.709Z,100.00
2023-02-08T00:19:48.689Z,100.00
2023-02-08T00:20:52.758Z,100.00
2023-02-08T00:21:56.605Z,100.00
2023-02-08T00:23:00.457Z,100.00
2023-02-08T00:24:04.520Z,100.00
2023-02-08T00:25:09.023Z,100.00
2023-02-08T00:26:13.819Z,100.00
2023-02-08T00:27:18.274Z,100.00
2023-02-08T00:28:22.395Z,100.00
2023-02-08T00:29:26.521Z,100.00
2023-02-08T00:30:30.629Z,100.00
2023-02-08T00:31:34.669Z,100.00
2023-02-08T00:32:38.738Z,100.00
2023-02-08T00:33:42.750Z,100.00
2023-02-08T00:34:46.719Z,100.00
2023-02-08T00:35:50.837Z,100.00
2023-02-08T00:36:54.873Z,100.00
2023-02-08T00:37:58.902Z,100.00
2023-02-08T00:39:03.260Z,100.00
2023-02-08T00:40:07.960Z,100.00
2023-02-08T00:41:12.064Z,100.00
2023-02-08T00:42:16.091Z,100.00
2023-02-08T00:43:20.091Z,100.00
2023-02-08T00:44:24.123Z,100.00
2023-02-08T00:45:28.085Z,100.00
2023-02-08T00:46:32.097Z,100.00
2023-02-08T00:47:35.995Z,100.00
2023-02-08T00:48:39.946Z,100.00
2023-02-08T00:49:43.924Z,100.00
2023-02-08T00:51:01.960Z,100.00
2023-02-08T00:52:05.985Z,100.00
2023-02-08T00:53:09.928Z,100.00
2023-02-08T00:54:16.260Z,100.00
2023-02-08T00:55:20.366Z,100.00
2023-02-08T00:56:24.405Z,100.00
2023-02-08T00:57:28.446Z,100.00
2023-02-08T00:58:32.470Z,100.00
2023-02-08T00:59:36.414Z,100.00
2023-02-08T01:00:40.710Z,100.00
2023-02-08T01:01:44.943Z,100.00
2023-02-08T01:02:48.871Z,100.00
2023-02-08T01:03:52.898Z,100.00
2023-02-08T01:04:56.871Z,100.00
2023-02-08T01:06:07.081Z,100.00
2023-02-08T01:07:11.173Z,100.00
2023-02-08T01:08:15.662Z,100.00
2023-02-08T01:09:19.714Z,100.00
2023-02-08T01:10:23.761Z,100.00
2023-02-08T01:11:27.777Z,100.00
2023-02-08T01:12:31.797Z,100.00
2023-02-08T01:13:36.736Z,100.00
2023-02-08T01:14:41.320Z,100.00
2023-02-08T01:15:45.261Z,100.00
2023-02-08T01:16:49.651Z,100.00
2023-02-08T01:17:58.122Z,100.00
2023-02-08T01:19:03.957Z,100.00
2023-02-08T01:20:08.859Z,100.00
2023-02-08T01:21:15.647Z,100.00
2023-02-08T01:22:19.515Z,100.00
2023-02-08T01:23:23.434Z,100.00
2023-02-08T01:24:27.631Z,100.00
2023-02-08T01:25:31.742Z,100.00
2023-02-08T01:26:37.640Z,100.00
2023-02-08T01:27:41.733Z,100.00
2023-02-08T01:28:46.297Z,100.00
2023-02-08T01:29:50.258Z,100.00
2023-02-08T01:30:54.323Z,100.00
2023-02-08T01:31:58.337Z,100.00
2023-02-08T01:33:02.231Z,100.00
2023-02-08T01:34:07.656Z,100.00
2023-02-08T01:35:11.650Z,100.00
2023-02-08T01:36:16.284Z,100.00
2023-02-08T01:37:20.162Z,100.00
2023-02-08T01:38:24.013Z,100.00
2023-02-08T01:39:27.933Z,100.00
2023-02-08T01:40:31.968Z,100.00
2023-02-08T01:41:39.663Z,100.00
2023-02-08T01:42:43.636Z,100.00
2023-02-08T01:44:08.331Z,100.00
2023-02-08T01:45:18.045Z,100.00
2023-02-08T01:46:22.117Z,100.00
2023-02-08T01:47:26.754Z,100.00
2023-02-08T01:48:33.610Z,100.00
2023-02-08T01:49:38.312Z,100.00
2023-02-08T01:50:57.449Z,100.00
2023-02-08T01:52:04.341Z,100.00
2023-02-08T01:53:08.702Z,100.00
2023-02-08T01:54:14.967Z,100.00
2023-02-08T01:55:24.462Z,100.00
2023-02-08T01:56:31.403Z,100.00
2023-02-08T01:57:35.570Z,100.00
2023-02-08T01:58:42.506Z,100.00
2023-02-08T01:59:49.434Z,100.00
2023-02-08T02:00:53.806Z,100.00
2023-02-08T02:01:59.328Z,100.00
2023-02-08T02:03:04.945Z,100.00
2023-02-08T02:04:09.506Z,100.00
2023-02-08T02:05:14.530Z,100.00
2023-02-08T02:06:21.473Z,100.00
2023-02-08T02:07:28.501Z,100.00
2023-02-08T02:08:32.616Z,100.00
2023-02-08T02:09:42.326Z,100.00
2023-02-08T02:10:48.900Z,100.00
2023-02-08T02:11:56.566Z,100.00
2023-02-08T02:13:09.758Z,100.00
2023-02-08T02:14:13.962Z,100.00
2023-02-08T02:15:18.191Z,100.00
2023-02-08T02:16:22.223Z,100.00
2023-02-08T02:17:26.352Z,100.00
2023-02-08T02:18:34.247Z,100.00
2023-02-08T02:19:57.820Z,100.00
2023-02-08T02:21:40.862Z,100.00
2023-02-08T02:22:53.770Z,100.00
2023-02-08T02:24:23.008Z,100.00
2023-02-08T02:25:41.441Z,100.00
2023-02-08T02:27:07.591Z,100.00
2023-02-08T02:28:28.732Z,100.00
2023-02-08T02:29:52.029Z,100.00
2023-02-08T02:31:27.229Z,100.00
2023-02-08T02:32:34.180Z,100.00
2023-02-08T02:34:01.843Z,100.00
2023-02-08T02:35:17.546Z,100.00
2023-02-08T02:36:47.170Z,100.00
2023-02-08T02:37:56.755Z,100.00
2023-02-08T02:39:12.423Z,100.00
2023-02-08T02:42:07.951Z,100.00
2023-02-08T02:43:26.684Z,100.00
2023-02-08T02:44:49.630Z,100.00
2023-02-08T02:46:04.976Z,100.00
2023-02-08T02:47:26.857Z,100.00
2023-02-08T02:48:39.770Z,100.00
2023-02-08T02:49:49.495Z,100.00
2023-02-08T02:50:56.575Z,100.00
2023-02-08T02:52:06.158Z,100.00
2023-02-08T02:53:35.887Z,100.00
2023-02-08T02:54:47.966Z,100.00
2023-02-08T02:55:55.015Z,100.00
2023-02-08T02:57:01.983Z,100.00
2023-02-08T02:58:08.372Z,100.00
2023-02-08T02:59:14.658Z,100.00
2023-02-08T03:00:25.244Z,100.00
2023-02-08T03:01:29.390Z,100.00
2023-02-08T03:02:33.293Z,100.00
2023-02-08T03:03:37.553Z,100.00
2023-02-08T03:04:44.466Z,100.00
2023-02-08T03:05:50.068Z,100.00
2023-02-08T03:07:11.808Z,100.00
2023-02-08T03:08:33.528Z,100.00
2023-02-08T03:09:49.627Z,100.00
2023-02-08T03:11:05.290Z,100.00
2023-02-08T03:12:18.280Z,100.00
2023-02-08T03:13:43.478Z,100.00
2023-02-08T03:14:50.461Z,100.00
2023-02-08T03:16:09.065Z,100.00
2023-02-08T03:17:18.854Z,100.00
2023-02-08T03:18:25.825Z,100.00
2023-02-08T03:19:35.555Z,100.00
2023-02-08T03:20:45.295Z,100.00
2023-02-08T03:21:55.205Z,100.00
2023-02-08T03:23:04.770Z,100.00
2023-02-08T03:24:32.716Z,100.00
2023-02-08T03:25:39.627Z,100.00
2023-02-08T03:27:03.117Z,100.00
2023-02-08T03:28:10.178Z,100.00
2023-02-08T03:29:36.314Z,100.00
2023-02-08T03:30:43.695Z,100.00
2023-02-08T03:31:50.945Z,100.00
2023-02-08T03:33:00.735Z,100.00
2023-02-08T03:34:15.937Z,100.00
2023-02-08T03:35:31.824Z,100.00
2023-02-08T03:36:44.520Z,100.00
2023-02-08T03:39:09.390Z,100.00
2023-02-08T03:40:19.601Z,100.00
2023-02-08T03:41:29.177Z,100.00
2023-02-08T03:42:36.006Z,100.00
2023-02-08T03:43:45.464Z,100.00
2023-02-08T03:44:55.324Z,100.00
2023-02-08T03:46:23.295Z,100.00
2023-02-08T03:47:30.334Z,100.00
2023-02-08T03:48:37.457Z,100.00
2023-02-08T03:50:38.806Z,100.00
2023-02-08T03:51:03.219Z,100.00
2023-02-08T03:52:10.195Z,100.00
2023-02-08T03:53:17.254Z,100.00
2023-02-08T03:54:24.272Z,100.00
2023-02-08T03:55:31.346Z,100.00
2023-02-08T03:56:41.016Z,100.00
2023-02-08T03:57:47.943Z,100.00
2023-02-08T03:59:00.853Z,100.00
2023-02-08T04:00:10.884Z,100.00
2023-02-08T04:01:17.940Z,100.00
2023-02-08T04:02:24.397Z,100.00
2023-02-08T04:03:30.966Z,100.00
2023-02-08T04:04:38.355Z,100.00
2023-02-08T04:05:42.926Z,100.00
2023-02-08T04:06:47.230Z,100.00
2023-02-08T04:07:52.183Z,100.00
2023-02-08T04:08:56.132Z,100.00
2023-02-08T04:10:00.204Z,100.00
2023-02-08T04:11:04.287Z,100.00
2023-02-08T04:12:08.518Z,100.00
2023-02-08T04:13:12.491Z,100.00
2023-02-08T04:14:16.767Z,100.00
2023-02-08T04:15:20.717Z,100.00
2023-02-08T04:16:24.766Z,100.00
2023-02-08T04:17:28.663Z,100.00
2023-02-08T04:18:32.608Z,100.00
2023-02-08T04:19:36.531Z,100.00
2023-02-08T04:20:40.987Z,100.00
2023-02-08T04:21:45.138Z,100.00
2023-02-08T04:22:49.155Z,100.00
2023-02-08T04:23:53.193Z,100.00
2023-02-08T04:24:57.177Z,100.00
2023-02-08T04:26:01.153Z,100.00
2023-02-08T04:27:06.110Z,100.00
2023-02-08T04:28:10.270Z,100.00
2023-02-08T04:29:14.486Z,100.00
2023-02-08T04:30:18.830Z,100.00
2023-02-08T04:31:24.430Z,100.00
2023-02-08T04:32:28.582Z,100.00
2023-02-08T04:33:32.674Z,100.00
2023-02-08T04:34:36.542Z,100.00
2023-02-08T04:35:41.746Z,100.00
2023-02-08T04:36:45.862Z,100.00
2023-02-08T04:37:49.911Z,100.00
2023-02-08T04:38:54.035Z,100.00
2023-02-08T04:39:58.074Z,100.00
2023-02-08T04:41:02.090Z,100.00
2023-02-08T04:42:06.228Z,100.00
2023-02-08T04:43:10.281Z,100.00
2023-02-08T04:44:14.310Z,100.00
2023-02-08T04:45:18.576Z,100.00
2023-02-08T04:46:46.595Z,100.00
2023-02-08T04:47:50.564Z,100.00
2023-02-08T04:48:54.470Z,100.00
2023-02-08T04:49:58.418Z,100.00
2023-02-08T04:51:02.505Z,100.00
2023-02-08T04:52:06.413Z,100.00
2023-02-08T04:53:10.489Z,100.00
2023-02-08T04:54:14.330Z,100.00
2023-02-08T04:55:18.279Z,100.00
2023-02-08T04:56:22.256Z,100.00
2023-02-08T04:57:26.198Z,100.00
2023-02-08T04:58:30.024Z,100.00
2023-02-08T04:59:33.958Z,100.00
2023-02-08T05:00:40.037Z,100.00
2023-02-08T05:01:44.213Z,100.00
2023-02-08T05:02:48.139Z,100.00
2023-02-08T05:03:52.095Z,100.00
2023-02-08T05:04:56.019Z,100.00
2023-02-08T05:06:02.040Z,100.00
2023-02-08T05:07:06.029Z,100.00
2023-02-08T05:08:09.951Z,100.00
2023-02-08T05:09:13.830Z,100.00
2023-02-08T05:10:18.768Z,100.00
2023-02-08T05:11:24.784Z,100.00
2023-02-08T05:12:28.717Z,100.00
2023-02-08T05:13:32.692Z,100.00
2023-02-08T05:14:36.679Z,100.00
2023-02-08T05:15:42.243Z,100.00
2023-02-08T05:16:47.816Z,100.00
2023-02-08T05:17:51.798Z,100.00
2023-02-08T05:18:58.876Z,100.00
2023-02-08T05:20:03.713Z,100.00
2023-02-08T05:21:08.397Z,100.00
2023-02-08T05:22:18.299Z,100.00
2023-02-08T05:23:22.401Z,100.00
2023-02-08T05:24:26.352Z,100.00
2023-02-08T05:25:31.890Z,100.00
2023-02-08T05:26:39.166Z,100.00
2023-02-08T05:27:43.086Z,100.00
2023-02-08T05:28:47.061Z,100.00
2023-02-08T05:29:50.987Z,100.00
2023-02-08T05:30:55.181Z,100.00
2023-02-08T05:31:59.299Z,100.00
2023-02-08T05:33:03.229Z,100.00
2023-02-08T05:34:07.245Z,100.00
2023-02-08T05:35:11.207Z,100.00
2023-02-08T05:36:15.208Z,100.00
2023-02-08T05:37:19.161Z,100.00
2023-02-08T05:38:23.007Z,100.00
2023-02-08T05:39:26.866Z,100.00
2023-02-08T05:40:30.961Z,100.00
2023-02-08T05:41:34.872Z,100.00
2023-02-08T05:42:38.892Z,100.00
2023-02-08T05:43:42.996Z,100.00
2023-02-08T05:44:47.008Z,100.00
2023-02-08T05:45:51.694Z,100.00
2023-02-08T05:46:55.626Z,100.00
2023-02-08T05:47:59.609Z,100.00
2023-02-08T05:49:04.107Z,100.00
2023-02-08T05:50:08.556Z,100.00
2023-02-08T05:51:12.468Z,100.00
2023-02-08T05:52:16.378Z,100.00
2023-02-08T05:53:21.370Z,100.00
2023-02-08T05:54:26.521Z,100.00
2023-02-08T05:55:30.518Z,100.00
2023-02-08T05:56:34.524Z,100.00
2023-02-08T05:57:38.480Z,100.00
2023-02-08T05:58:42.495Z,100.00
2023-02-08T05:59:46.483Z,100.00
2023-02-08T06:00:50.565Z,100.00
2023-02-08T06:01:54.520Z,100.00
2023-02-08T06:02:59.118Z,100.00
2023-02-08T06:04:03.337Z,100.00
2023-02-08T06:05:07.865Z,100.00
2023-02-08T06:06:12.385Z,100.00
2023-02-08T06:07:16.650Z,100.00
2023-02-08T06:08:20.520Z,100.00
2023-02-08T06:09:24.552Z,100.00
2023-02-08T06:10:28.558Z,100.00
2023-02-08T06:11:32.452Z,100.00
2023-02-08T06:12:36.420Z,100.00
2023-02-08T06:13:40.453Z,100.00
2023-02-08T06:14:44.425Z,100.00
2023-02-08T06:15:48.382Z,100.00
2023-02-08T06:16:52.403Z,100.00
2023-02-08T06:17:56.763Z,100.00
2023-02-08T06:19:00.929Z,100.00
2023-02-08T06:20:05.656Z,100.00
2023-02-08T06:21:13.593Z,100.00
2023-02-08T06:22:19.157Z,100.00
2023-02-08T06:23:23.940Z,100.00
2023-02-08T06:24:28.070Z,100.00
2023-02-08T06:25:32.171Z,100.00
2023-02-08T06:26:36.241Z,100.00
2023-02-08T06:27:40.212Z,100.00
2023-02-08T06:28:44.102Z,100.00
2023-02-08T06:29:48.126Z,100.00
2023-02-08T06:30:52.931Z,100.00
2023-02-08T06:31:57.064Z,100.00
2023-02-08T06:33:01.135Z,100.00
2023-02-08T06:34:08.161Z,100.00
2023-02-08T06:35:12.970Z,100.00
2023-02-08T06:36:18.869Z,100.00
2023-02-08T06:37:23.009Z,100.00
2023-02-08T06:38:27.077Z,100.00
2023-02-08T06:39:31.033Z,100.00
2023-02-08T06:40:35.057Z,100.00
2023-02-08T06:41:38.969Z,100.00
2023-02-08T06:42:43.011Z,100.00
2023-02-08T06:43:47.077Z,100.00
2023-02-08T06:44:55.168Z,100.00
2023-02-08T06:45:56.841Z,100.00
2023-02-08T06:47:00.960Z,100.00
2023-02-08T06:48:05.203Z,100.00
2023-02-08T06:49:09.190Z,100.00
2023-02-08T06:50:13.291Z,100.00
2023-02-08T06:51:17.266Z,100.00
2023-02-08T06:52:22.059Z,100.00
2023-02-08T06:53:26.025Z,100.00
2023-02-08T06:54:30.067Z,100.00
2023-02-08T06:55:34.155Z,100.00
2023-02-08T06:56:38.276Z,100.00
2023-02-08T06:57:42.397Z,100.00
2023-02-08T06:58:46.415Z,100.00
2023-02-08T06:59:50.384Z,100.00
2023-02-08T07:00:54.461Z,100.00
2023-02-08T07:02:01.108Z,100.00
2023-02-08T07:03:04.132Z,100.00
2023-02-08T07:04:08.154Z,100.00
2023-02-08T07:05:12.216Z,100.00
2023-02-08T07:06:19.677Z,100.00
2023-02-08T07:07:23.732Z,100.00
2023-02-08T07:08:27.731Z,100.00
2023-02-08T07:09:33.271Z,100.00
2023-02-08T07:10:40.123Z,100.00
2023-02-08T07:11:44.788Z,100.00
2023-02-08T07:12:48.709Z,100.00
2023-02-08T07:13:53.203Z,100.00
2023-02-08T07:14:57.127Z,100.00
2023-02-08T07:16:01.170Z,100.00
2023-02-08T07:17:05.850Z,100.00
2023-02-08T07:18:09.823Z,100.00
2023-02-08T07:19:13.752Z,100.00
2023-02-08T07:20:17.997Z,100.00
2023-02-08T07:21:22.033Z,100.00
2023-02-08T07:22:25.961Z,100.00
2023-02-08T07:23:29.825Z,100.00
2023-02-08T07:24:35.055Z,100.00
2023-02-08T07:25:38.998Z,100.00
2023-02-08T07:26:43.045Z,100.00
2023-02-08T07:27:46.918Z,100.00
2023-02-08T07:28:50.873Z,100.00
2023-02-08T07:29:55.037Z,100.00
2023-02-08T07:30:59.162Z,100.00
2023-02-08T07:32:06.724Z,100.00
2023-02-08T07:33:10.677Z,100.00
2023-02-08T07:34:14.688Z,100.00
2023-02-08T07:35:20.739Z,100.00
2023-02-08T07:36:24.374Z,100.00
2023-02-08T07:37:28.666Z,100.00
2023-02-08T07:38:34.190Z,100.00
2023-02-08T07:39:39.674Z,100.00
2023-02-08T07:40:43.864Z,100.00
2023-02-08T07:41:48.617Z,100.00
2023-02-08T07:42:53.981Z,100.00
2023-02-08T07:43:59.802Z,100.00
2023-02-08T07:45:05.760Z,100.00
2023-02-08T07:46:13.052Z,100.00
2023-02-08T07:47:21.068Z,100.00
2023-02-08T07:48:30.901Z,100.00
2023-02-08T07:49:49.360Z,100.00
2023-02-08T07:50:45.234Z,100.00
2023-02-08T07:51:49.530Z,100.00
2023-02-08T07:52:53.544Z,100.00
2023-02-08T07:53:59.349Z,100.00
2023-02-08T07:55:08.205Z,100.00
2023-02-08T07:56:14.488Z,100.00
2023-02-08T07:57:20.984Z,100.00
2023-02-08T07:58:24.713Z,100.00
2023-02-08T07:59:36.261Z,100.00
2023-02-08T08:00:42.386Z,100.00
2023-02-08T08:01:52.568Z,100.00
2023-02-08T08:02:56.836Z,100.00
2023-02-08T08:04:02.015Z,100.00
2023-02-08T08:05:06.308Z,100.00
2023-02-08T08:06:11.926Z,100.00
2023-02-08T08:07:18.718Z,100.00
2023-02-08T08:08:24.237Z,100.00
2023-02-08T08:09:28.387Z,100.00
2023-02-08T08:10:34.192Z,100.00
2023-02-08T08:11:39.703Z,100.00
2023-02-08T08:12:45.265Z,100.00
2023-02-08T08:13:52.643Z,100.00
2023-02-08T08:15:09.105Z,100.00
2023-02-08T08:16:11.577Z,100.00
2023-02-08T08:17:18.233Z,100.00
2023-02-08T08:18:38.481Z,100.00
2023-02-08T08:19:32.788Z,100.00
2023-02-08T08:20:40.896Z,100.00
2023-02-08T08:21:45.575Z,100.00
2023-02-08T08:22:49.600Z,100.00
2023-02-08T08:23:53.580Z,100.00
2023-02-08T08:24:59.037Z,100.00
2023-02-08T08:26:15.206Z,100.00
2023-02-08T08:27:21.251Z,100.00
2023-02-08T08:28:25.131Z,100.00
2023-02-08T08:29:31.286Z,100.00
2023-02-08T08:30:38.626Z,100.00
2023-02-08T08:31:44.406Z,100.00
2023-02-08T08:32:48.780Z,100.00
2023-02-08T08:34:01.112Z,100.00
2023-02-08T08:35:15.611Z,100.00
2023-02-08T08:36:21.301Z,100.00
2023-02-08T08:37:26.686Z,100.00
2023-02-08T08:38:30.856Z,100.00
2023-02-08T08:39:36.572Z,100.00
2023-02-08T08:40:42.469Z,100.00
2023-02-08T08:41:48.520Z,100.00
2023-02-08T08:42:55.000Z,100.00
2023-02-08T08:44:01.150Z,100.00
2023-02-08T08:45:05.193Z,100.00
2023-02-08T08:46:10.188Z,100.00
2023-02-08T08:47:18.376Z,100.00
2023-02-08T08:48:21.471Z,100.00
2023-02-08T08:49:27.451Z,100.00
2023-02-08T08:50:31.802Z,100.00
2023-02-08T08:51:35.922Z,100.00
2023-02-08T08:52:39.890Z,100.00
2023-02-08T08:53:45.573Z,100.00
2023-02-08T08:54:49.807Z,100.00
2023-02-08T08:55:53.827Z,100.00
2023-02-08T08:56:57.992Z,100.00
2023-02-08T08:58:03.548Z,100.00
2023-02-08T08:59:10.051Z,100.00
2023-02-08T09:00:20.405Z,100.00
2023-02-08T09:01:24.863Z,100.00
2023-02-08T09:02:29.004Z,100.00
2023-02-08T09:03:33.214Z,100.00
2023-02-08T09:04:37.456Z,100.00
2023-02-08T09:05:43.116Z,100.00
2023-02-08T09:06:47.331Z,100.00
2023-02-08T09:07:51.394Z,100.00
2023-02-08T09:08:55.426Z,100.00
2023-02-08T09:09:59.355Z,100.00
2023-02-08T09:11:12.600Z,100.00
2023-02-08T09:12:18.258Z,100.00
2023-02-08T09:13:23.964Z,100.00
2023-02-08T09:14:28.336Z,100.00
2023-02-08T09:15:34.121Z,100.00
2023-02-08T09:16:45.918Z,100.00
2023-02-08T09:17:51.503Z,100.00
2023-02-08T09:18:58.835Z,100.00
2023-02-08T09:20:04.961Z,100.00
2023-02-08T09:21:14.210Z,100.00
2023-02-08T09:22:21.588Z,100.00
2023-02-08T09:23:25.916Z,100.00
2023-02-08T09:24:30.005Z,100.00
2023-02-08T09:25:34.029Z,100.00
2023-02-08T09:26:39.005Z,100.00
2023-02-08T09:27:46.139Z,100.00
2023-02-08T09:28:50.350Z,100.00
2023-02-08T09:29:54.413Z,100.00
2023-02-08T09:31:00.228Z,100.00
2023-02-08T09:32:04.505Z,100.00
2023-02-08T09:33:08.847Z,100.00
2023-02-08T09:34:17.754Z,100.00
2023-02-08T09:35:23.168Z,100.00
2023-02-08T09:36:31.947Z,100.00
2023-02-08T09:37:42.020Z,100.00
2023-02-08T09:38:52.108Z,100.00
2023-02-08T09:40:08.732Z,100.00
2023-02-08T09:41:24.509Z,100.00
2023-02-08T09:42:44.745Z,100.00
2023-02-08T09:44:09.522Z,100.00
2023-02-08T09:45:28.137Z,100.00
2023-02-08T09:46:36.349Z,100.00
2023-02-08T09:47:57.703Z,100.00
2023-02-08T09:49:06.127Z,100.00
2023-02-08T09:50:38.618Z,100.00
2023-02-08T09:51:45.819Z,100.00
2023-02-08T09:53:13.812Z,100.00
2023-02-08T09:54:35.606Z,100.00
2023-02-08T09:55:42.510Z,100.00
2023-02-08T09:56:51.015Z,100.00
2023-02-08T09:57:59.331Z,100.00
2023-02-08T09:59:03.573Z,100.00
2023-02-08T10:02:27.337Z,100.00
2023-02-08T10:03:34.485Z,100.00
2023-02-08T10:04:44.614Z,100.00
2023-02-08T10:05:48.690Z,99.93
2023-02-08T10:06:52.941Z,100.00
2023-02-08T10:07:57.271Z,100.00
2023-02-08T10:09:04.309Z,100.00
2023-02-08T10:10:14.647Z,100.00
2023-02-08T10:11:32.073Z,100.00
2023-02-08T10:12:56.944Z,100.00
2023-02-08T10:14:10.295Z,100.00
2023-02-08T10:15:35.098Z,100.00
2023-02-08T10:16:51.077Z,100.00
2023-02-08T10:18:04.023Z,99.95
2023-02-08T10:19:16.574Z,100.00
2023-02-08T10:20:44.878Z,96.64
2023-02-08T10:22:00.944Z,95.93
2023-02-08T10:23:28.414Z,97.64
2023-02-08T10:24:47.201Z,98.26
2023-02-08T10:26:03.481Z,98.29
2023-02-08T10:27:20.229Z,99.20
2023-02-08T10:28:30.628Z,99.20
2023-02-08T10:30:02.992Z,99.06
2023-02-08T10:31:18.916Z,99.73
2023-02-08T10:32:37.773Z,99.73
2023-02-08T10:33:44.830Z,98.81
2023-02-08T10:34:56.618Z,99.95
2023-02-08T10:36:00.386Z,100.00
2023-02-08T10:37:19.248Z,100.00
2023-02-08T10:38:45.277Z,99.87
2023-02-08T10:39:39.890Z,99.91
2023-02-08T10:40:45.438Z,100.00
2023-02-08T10:41:52.654Z,100.00
2023-02-08T10:43:02.891Z,100.00
2023-02-08T10:44:18.893Z,100.00
2023-02-08T10:45:31.634Z,100.00
2023-02-08T10:46:50.434Z,100.00
2023-02-08T10:47:59.310Z,99.24
2023-02-08T10:49:18.573Z,99.24
2023-02-08T10:50:37.996Z,99.84
2023-02-08T10:51:43.009Z,99.53
2023-02-08T10:52:50.633Z,99.37
2023-02-08T10:53:56.033Z,99.58
2023-02-08T10:55:02.148Z,100.00
2023-02-08T10:56:06.676Z,100.00
2023-02-08T10:57:23.052Z,100.00
2023-02-08T10:58:27.379Z,100.00
2023-02-08T10:59:51.304Z,100.00
2023-02-08T11:00:56.569Z,100.00
2023-02-08T11:02:00.767Z,100.00
2023-02-08T11:03:10.581Z,100.00
2023-02-08T11:04:16.099Z,100.00
2023-02-08T11:05:23.072Z,100.00
2023-02-08T11:06:28.249Z,100.00
2023-02-08T11:07:36.071Z,100.00
2023-02-08T11:08:42.371Z,100.00
2023-02-08T11:09:46.596Z,100.00
2023-02-08T11:11:02.780Z,100.00
2023-02-08T11:12:08.453Z,100.00
2023-02-08T11:13:20.879Z,100.00
2023-02-08T11:14:40.972Z,100.00
2023-02-08T11:15:56.924Z,100.00
2023-02-08T11:17:01.322Z,98.15
2023-02-08T11:18:08.620Z,98.15
2023-02-08T11:19:21.273Z,97.04
2023-02-08T11:20:32.489Z,97.84
2023-02-08T11:21:39.611Z,98.31
2023-02-08T11:22:46.189Z,98.29
2023-02-08T11:23:53.041Z,98.39
2023-02-08T11:25:05.007Z,98.19
2023-02-08T11:26:27.184Z,99.27
2023-02-08T11:27:38.977Z,99.86
2023-02-08T11:28:43.868Z,100.00
2023-02-08T11:29:47.969Z,100.00
2023-02-08T11:31:00.883Z,100.00
2023-02-08T11:32:17.138Z,100.00
2023-02-08T11:33:21.300Z,100.00
2023-02-08T11:34:29.895Z,100.00
2023-02-08T11:35:34.158Z,100.00
2023-02-08T11:36:46.912Z,100.00
2023-02-08T11:37:58.075Z,100.00
2023-02-08T11:39:21.247Z,100.00
2023-02-08T11:40:39.920Z,100.00
2023-02-08T11:41:49.434Z,100.00
2023-02-08T11:42:54.644Z,100.00
2023-02-08T11:44:06.755Z,100.00
2023-02-08T11:45:24.229Z,100.00
2023-02-08T11:46:31.429Z,100.00
2023-02-08T11:47:39.780Z,100.00
2023-02-08T11:48:52.434Z,100.00
2023-02-08T11:49:59.732Z,100.00
2023-02-08T11:51:04.756Z,100.00
2023-02-08T11:53:48.362Z,100.00
2023-02-08T11:54:53.841Z,100.00
2023-02-08T11:56:18.837Z,100.00
2023-02-08T11:57:27.272Z,100.00
2023-02-08T11:58:32.350Z,100.00
2023-02-08T11:59:36.580Z,100.00
2023-02-08T12:00:41.721Z,100.00
2023-02-08T12:01:45.896Z,100.00
2023-02-08T12:02:51.458Z,100.00
2023-02-08T12:03:58.358Z,100.00
2023-02-08T12:05:03.299Z,100.00
2023-02-08T12:06:27.308Z,100.00
2023-02-08T12:07:39.717Z,100.00
2023-02-08T12:09:09.206Z,100.00
2023-02-08T12:10:38.063Z,100.00
2023-02-08T12:11:48.759Z,100.00
2023-02-08T12:12:55.830Z,100.00
2023-02-08T12:14:02.855Z,100.00
2023-02-08T12:15:45.028Z,100.00
2023-02-08T12:16:53.645Z,100.00
2023-02-08T12:18:06.468Z,100.00
2023-02-08T12:20:48.723Z,100.00
2023-02-08T12:21:55.684Z,100.00
2023-02-08T12:23:08.739Z,100.00
2023-02-08T12:24:24.351Z,100.00
2023-02-08T12:25:36.788Z,100.00
2023-02-08T12:27:01.596Z,100.00
2023-02-08T12:28:17.397Z,100.00
2023-02-08T12:29:24.410Z,100.00
2023-02-08T12:30:43.917Z,100.00
2023-02-08T12:31:59.795Z,100.00
2023-02-08T12:33:23.487Z,100.00
2023-02-08T12:35:07.040Z,100.00
2023-02-08T12:36:14.385Z,100.00
2023-02-08T12:37:27.479Z,100.00
2023-02-08T12:38:40.289Z,100.00
2023-02-08T12:39:55.888Z,100.00
2023-02-08T12:41:23.731Z,100.00
2023-02-08T12:42:36.388Z,100.00
2023-02-08T12:43:52.153Z,100.00
2023-02-08T12:45:02.120Z,100.00
2023-02-08T12:46:09.415Z,100.00
2023-02-08T12:47:22.171Z,100.00
2023-02-08T12:48:45.374Z,100.00
2023-02-08T12:50:04.473Z,100.00
2023-02-08T12:51:11.491Z,100.00
2023-02-08T12:52:24.639Z,100.00
2023-02-08T12:53:31.632Z,100.00
2023-02-08T12:54:55.082Z,100.00
2023-02-08T12:56:02.176Z,100.00
2023-02-08T12:57:07.636Z,100.00
2023-02-08T12:58:26.543Z,100.00
2023-02-08T12:59:36.302Z,100.00
2023-02-08T13:00:43.718Z,100.00
2023-02-08T13:01:50.470Z,100.00
2023-02-08T13:03:03.535Z,100.00
2023-02-08T13:04:13.370Z,100.00
2023-02-08T13:05:20.611Z,100.00
2023-02-08T13:06:27.913Z,100.00
2023-02-08T13:07:38.189Z,100.00
2023-02-08T13:08:59.381Z,100.00
2023-02-08T13:10:09.263Z,100.00
2023-02-08T13:11:20.281Z,100.00
2023-02-08T13:12:30.626Z,100.00
2023-02-08T13:13:37.663Z,100.00
2023-02-08T13:14:44.734Z,100.00
2023-02-08T13:16:10.060Z,100.00
2023-02-08T13:17:26.659Z,100.00
2023-02-08T13:18:39.501Z,100.00
2023-02-08T13:19:58.130Z,100.00
2023-02-08T13:20:57.946Z,100.00
2023-02-08T13:22:05.049Z,100.00
2023-02-08T13:23:33.416Z,100.00
2023-02-08T13:24:44.075Z,100.00
2023-02-08T13:25:50.918Z,100.00
2023-02-08T13:26:55.010Z,100.00
2023-02-08T13:28:04.575Z,100.00
2023-02-08T13:29:11.734Z,100.00
2023-02-08T13:30:22.574Z,100.00
2023-02-08T13:31:35.630Z,100.00
2023-02-08T13:32:45.528Z,100.00
2023-02-08T13:34:04.415Z,100.00
2023-02-08T13:35:23.140Z,100.00
2023-02-08T13:36:32.875Z,100.00
2023-02-08T13:37:37.482Z,100.00
2023-02-08T13:38:44.917Z,100.00
2023-02-08T13:39:49.720Z,100.00
2023-02-08T13:41:08.485Z,100.00
2023-02-08T13:42:30.375Z,100.00
2023-02-08T13:43:46.074Z,100.00
2023-02-08T13:44:53.204Z,100.00
2023-02-08T13:46:00.185Z,100.00
2023-02-08T13:47:07.609Z,100.00
2023-02-08T13:48:17.281Z,100.00
2023-02-08T13:49:43.920Z,100.00
2023-02-08T13:50:52.716Z,100.00
2023-02-08T13:51:56.687Z,100.00
2023-02-08T13:53:01.714Z,100.00
2023-02-08T13:54:11.498Z,100.00
2023-02-08T13:55:33.588Z,100.00
2023-02-08T13:56:46.937Z,100.00
2023-02-08T13:57:56.035Z,100.00
2023-02-08T13:59:01.544Z,100.00
2023-02-08T14:00:24.092Z,100.00
2023-02-08T14:01:30.901Z,100.00
2023-02-08T14:02:34.873Z,100.00
2023-02-08T14:03:38.921Z,100.00
2023-02-08T14:04:44.651Z,100.00
2023-02-08T14:06:00.637Z,100.00
2023-02-08T14:07:13.553Z,100.00
2023-02-08T14:08:26.390Z,100.00
2023-02-08T14:09:51.142Z,100.00
2023-02-08T14:11:06.884Z,100.00
2023-02-08T14:12:22.630Z,100.00
2023-02-08T14:13:35.503Z,100.00
2023-02-08T14:14:40.192Z,100.00
2023-02-08T14:15:45.159Z,100.00
2023-02-08T14:17:11.830Z,100.00
2023-02-08T14:18:24.605Z,100.00
2023-02-08T14:19:28.688Z,100.00
2023-02-08T14:20:35.650Z,100.00
2023-02-08T14:21:45.348Z,100.00